sensor_id;sensor_type;location;lat;lon;timestamp;pressure;altitude;pressure_sealevel;temperature;humidity
47220;BME280;32961;51.936;4.788;2023-09-19T00:02:04;100667.44;;;15.11;100.00
47220;BME280;32961;51.936;4.788;2023-09-19T00:04:35;100663.88;;;15.10;100.00
47220;BME280;32961;51.936;4.788;2023-09-19T00:07:06;100676.69;;;15.10;100.00
47220;BME280;32961;51.936;4.788;2023-09-19T00:09:35;100687.81;;;15.08;100.00
47220;BME280;32961;51.936;4.788;2023-09-19T00:12:05;100676.22;;;15.06;100.00
47220;BME280;32961;51.936;4.788;2023-09-19T00:14:35;100683.91;;;15.02;100.00
47220;BME280;32961;51.936;4.788;2023-09-19T00:17:05;100684.06;;;15.01;100.00
47220;BME280;32961;51.936;4.788;2023-09-19T00:19:35;100688.00;;;14.98;100.00
47220;BME280;32961;51.936;4.788;2023-09-19T00:22:04;100684.63;;;14.96;100.00
47220;BME280;32961;51.936;4.788;2023-09-19T00:24:31;100691.81;;;14.97;100.00
47220;BME280;32961;51.936;4.788;2023-09-19T00:26:59;100690.25;;;14.95;100.00
47220;BME280;32961;51.936;4.788;2023-09-19T00:29:27;100689.75;;;14.91;100.00
47220;BME280;32961;51.936;4.788;2023-09-19T00:31:58;100694.75;;;14.87;100.00
47220;BME280;32961;51.936;4.788;2023-09-19T00:34:27;100695.09;;;14.84;100.00
47220;BME280;32961;51.936;4.788;2023-09-19T00:36:56;100692.16;;;14.86;99.92
47220;BME280;32961;51.936;4.788;2023-09-19T00:39:24;100701.25;;;14.86;99.69
47220;BME280;32961;51.936;4.788;2023-09-19T00:41:52;100690.13;;;14.88;99.72
47220;BME280;32961;51.936;4.788;2023-09-19T00:44:21;100691.50;;;14.84;98.90
47220;BME280;32961;51.936;4.788;2023-09-19T00:46:49;100686.75;;;14.78;98.01
47220;BME280;32961;51.936;4.788;2023-09-19T00:49:18;100700.25;;;14.79;98.11
47220;BME280;32961;51.936;4.788;2023-09-19T00:51:50;100697.69;;;14.78;97.91
47220;BME280;32961;51.936;4.788;2023-09-19T00:54:18;100697.69;;;14.78;97.43
47220;BME280;32961;51.936;4.788;2023-09-19T00:56:46;100697.00;;;14.75;97.21
47220;BME280;32961;51.936;4.788;2023-09-19T00:59:15;100705.38;;;14.74;97.11
47220;BME280;32961;51.936;4.788;2023-09-19T01:01:43;100711.38;;;14.69;96.37
47220;BME280;32961;51.936;4.788;2023-09-19T01:04:12;100711.72;;;14.66;96.16
47220;BME280;32961;51.936;4.788;2023-09-19T01:06:40;100713.59;;;14.66;96.16
47220;BME280;32961;51.936;4.788;2023-09-19T01:09:09;100721.09;;;14.64;95.59
47220;BME280;32961;51.936;4.788;2023-09-19T01:11:40;100717.66;;;14.61;95.27
47220;BME280;32961;51.936;4.788;2023-09-19T01:14:19;100718.88;;;14.59;95.59
47220;BME280;32961;51.936;4.788;2023-09-19T01:16:55;100716.31;;;14.57;95.52
47220;BME280;32961;51.936;4.788;2023-09-19T01:19:51;100714.97;;;14.53;95.63
47220;BME280;32961;51.936;4.788;2023-09-19T01:22:29;100724.38;;;14.51;95.76
47220;BME280;32961;51.936;4.788;2023-09-19T01:28:20;100723.69;;;14.49;96.32
47220;BME280;32961;51.936;4.788;2023-09-19T01:30:56;100716.00;;;14.44;96.43
47220;BME280;32961;51.936;4.788;2023-09-19T01:33:25;100708.66;;;14.44;96.56
47220;BME280;32961;51.936;4.788;2023-09-19T01:35:53;100719.94;;;14.41;96.58
47220;BME280;32961;51.936;4.788;2023-09-19T01:38:22;100728.31;;;14.40;96.48
47220;BME280;32961;51.936;4.788;2023-09-19T01:40:57;100721.31;;;14.37;96.22
47220;BME280;32961;51.936;4.788;2023-09-19T01:43:34;100716.88;;;14.36;96.25
47220;BME280;32961;51.936;4.788;2023-09-19T01:46:12;100722.66;;;14.33;96.02
47220;BME280;32961;51.936;4.788;2023-09-19T01:48:46;100725.94;;;14.28;95.77
47220;BME280;32961;51.936;4.788;2023-09-19T01:51:21;100727.81;;;14.28;95.89
47220;BME280;32961;51.936;4.788;2023-09-19T01:53:59;100727.81;;;14.28;95.59
47220;BME280;32961;51.936;4.788;2023-09-19T01:56:33;100731.75;;;14.25;95.61
47220;BME280;32961;51.936;4.788;2023-09-19T01:59:07;100729.19;;;14.24;95.46
47220;BME280;32961;51.936;4.788;2023-09-19T02:01:41;100734.97;;;14.21;95.32
47220;BME280;32961;51.936;4.788;2023-09-19T02:04:11;100735.84;;;14.21;95.59
47220;BME280;32961;51.936;4.788;2023-09-19T02:06:39;100727.66;;;14.21;95.42
47220;BME280;32961;51.936;4.788;2023-09-19T02:09:07;100725.06;;;14.20;95.14
47220;BME280;32961;51.936;4.788;2023-09-19T02:11:35;100730.72;;;14.18;95.18
47220;BME280;32961;51.936;4.788;2023-09-19T02:14:04;100731.91;;;14.16;94.86
47220;BME280;32961;51.936;4.788;2023-09-19T02:16:35;100740.28;;;14.14;94.99
47220;BME280;32961;51.936;4.788;2023-09-19T02:19:05;100731.22;;;14.13;94.79
47220;BME280;32961;51.936;4.788;2023-09-19T02:21:34;100734.13;;;14.12;94.66
47220;BME280;32961;51.936;4.788;2023-09-19T02:24:02;100734.97;;;14.12;94.71
47220;BME280;32961;51.936;4.788;2023-09-19T02:26:30;100736.03;;;14.11;94.62
47220;BME280;32961;51.936;4.788;2023-09-19T02:28:58;100733.28;;;14.11;94.57
47220;BME280;32961;51.936;4.788;2023-09-19T02:31:27;100732.59;;;14.09;94.34
47220;BME280;32961;51.936;4.788;2023-09-19T02:33:56;100738.22;;;14.08;94.48
47220;BME280;32961;51.936;4.788;2023-09-19T02:36:25;100736.34;;;14.08;95.05
47220;BME280;32961;51.936;4.788;2023-09-19T02:38:53;100737.22;;;14.09;95.11
47220;BME280;32961;51.936;4.788;2023-09-19T02:41:21;100734.31;;;14.10;95.34
47220;BME280;32961;51.936;4.788;2023-09-19T02:43:48;100744.72;;;14.07;95.22
47220;BME280;32961;51.936;4.788;2023-09-19T02:46:16;100748.66;;;14.04;95.16
47220;BME280;32961;51.936;4.788;2023-09-19T02:48:44;100747.78;;;14.04;95.48
47220;BME280;32961;51.936;4.788;2023-09-19T02:51:12;100744.19;;;14.03;95.12
47220;BME280;32961;51.936;4.788;2023-09-19T02:53:41;100734.66;;;13.99;95.04
47220;BME280;32961;51.936;4.788;2023-09-19T02:56:09;100743.69;;;14.00;94.96
47220;BME280;32961;51.936;4.788;2023-09-19T02:58:40;100736.50;;;13.99;95.11
47220;BME280;32961;51.936;4.788;2023-09-19T03:01:08;100736.00;;;13.95;95.26
47220;BME280;32961;51.936;4.788;2023-09-19T03:03:38;100744.19;;;13.95;95.14
47220;BME280;32961;51.936;4.788;2023-09-19T03:06:07;100730.72;;;13.93;95.31
47220;BME280;32961;51.936;4.788;2023-09-19T03:08:36;100743.53;;;13.93;95.21
47220;BME280;32961;51.936;4.788;2023-09-19T03:11:10;100739.06;;;13.92;95.15
47220;BME280;32961;51.936;4.788;2023-09-19T03:13:39;100742.13;;;13.89;95.44
47220;BME280;32961;51.936;4.788;2023-09-19T03:16:08;100750.31;;;13.89;95.68
47220;BME280;32961;51.936;4.788;2023-09-19T03:18:37;100749.50;;;13.88;96.09
47220;BME280;32961;51.936;4.788;2023-09-19T03:21:05;100740.59;;;13.86;95.89
47220;BME280;32961;51.936;4.788;2023-09-19T03:23:32;100749.63;;;13.87;96.19
47220;BME280;32961;51.936;4.788;2023-09-19T03:26:00;100744.16;;;13.87;96.12
47220;BME280;32961;51.936;4.788;2023-09-19T03:28:29;100751.53;;;13.86;96.30
47220;BME280;32961;51.936;4.788;2023-09-19T03:31:02;100734.63;;;13.83;96.11
47220;BME280;32961;51.936;4.788;2023-09-19T03:33:30;100735.63;;;13.82;96.13
47220;BME280;32961;51.936;4.788;2023-09-19T03:36:00;100741.97;;;13.82;96.17
47220;BME280;32961;51.936;4.788;2023-09-19T03:38:32;100738.88;;;13.85;96.02
47220;BME280;32961;51.936;4.788;2023-09-19T03:41:01;100735.50;;;13.83;95.81
47220;BME280;32961;51.936;4.788;2023-09-19T03:43:31;100734.44;;;13.84;95.65
47220;BME280;32961;51.936;4.788;2023-09-19T03:46:01;100728.84;;;13.86;95.69
47220;BME280;32961;51.936;4.788;2023-09-19T03:48:30;100732.41;;;13.86;95.46
47220;BME280;32961;51.936;4.788;2023-09-19T03:50:58;100728.97;;;13.84;95.32
47220;BME280;32961;51.936;4.788;2023-09-19T03:53:26;100736.66;;;13.80;95.38
47220;BME280;32961;51.936;4.788;2023-09-19T03:55:53;100738.22;;;13.83;95.26
47220;BME280;32961;51.936;4.788;2023-09-19T03:58:21;100738.38;;;13.82;95.20
47220;BME280;32961;51.936;4.788;2023-09-19T04:00:54;100743.31;;;13.78;95.63
47220;BME280;32961;51.936;4.788;2023-09-19T04:03:22;100745.72;;;13.81;95.73
47220;BME280;32961;51.936;4.788;2023-09-19T04:05:51;100750.16;;;13.82;95.91
47220;BME280;32961;51.936;4.788;2023-09-19T04:08:18;100756.28;;;13.84;95.67
47220;BME280;32961;51.936;4.788;2023-09-19T04:10:46;100758.00;;;13.85;95.96
47220;BME280;32961;51.936;4.788;2023-09-19T04:13:14;100754.25;;;13.86;95.84
47220;BME280;32961;51.936;4.788;2023-09-19T04:15:42;100758.00;;;13.85;95.63
47220;BME280;32961;51.936;4.788;2023-09-19T04:18:11;100775.41;;;13.84;95.83
47220;BME280;32961;51.936;4.788;2023-09-19T04:20:39;100780.88;;;13.84;95.94
47220;BME280;32961;51.936;4.788;2023-09-19T04:23:07;100788.22;;;13.84;96.09
47220;BME280;32961;51.936;4.788;2023-09-19T04:25:34;100791.13;;;13.82;96.10
47220;BME280;32961;51.936;4.788;2023-09-19T04:28:04;100783.06;;;13.80;95.88
47220;BME280;32961;51.936;4.788;2023-09-19T04:30:32;100774.22;;;13.78;96.36
47220;BME280;32961;51.936;4.788;2023-09-19T04:33:00;100788.88;;;13.77;96.27
47220;BME280;32961;51.936;4.788;2023-09-19T04:35:34;100788.88;;;13.77;96.08
47220;BME280;32961;51.936;4.788;2023-09-19T04:38:02;100784.13;;;13.79;96.07
47220;BME280;32961;51.936;4.788;2023-09-19T04:40:32;100791.28;;;13.80;96.11
47220;BME280;32961;51.936;4.788;2023-09-19T04:43:00;100781.53;;;13.78;96.08
47220;BME280;32961;51.936;4.788;2023-09-19T04:45:29;100791.44;;;13.79;96.11
47220;BME280;32961;51.936;4.788;2023-09-19T04:47:57;100795.88;;;13.80;95.63
47220;BME280;32961;51.936;4.788;2023-09-19T04:50:25;100793.16;;;13.80;96.14
47220;BME280;32961;51.936;4.788;2023-09-19T04:52:56;100795.72;;;13.82;96.00
47220;BME280;32961;51.936;4.788;2023-09-19T04:55:24;100796.59;;;13.82;95.65
47220;BME280;32961;51.936;4.788;2023-09-19T04:57:52;100796.91;;;13.79;95.98
47220;BME280;32961;51.936;4.788;2023-09-19T05:00:22;100799.97;;;13.76;95.84
47220;BME280;32961;51.936;4.788;2023-09-19T05:02:51;100803.38;;;13.78;95.75
47220;BME280;32961;51.936;4.788;2023-09-19T05:05:19;100795.88;;;13.80;96.04
47220;BME280;32961;51.936;4.788;2023-09-19T05:07:49;100795.72;;;13.82;95.88
47220;BME280;32961;51.936;4.788;2023-09-19T05:10:19;100799.97;;;13.84;95.99
47220;BME280;32961;51.936;4.788;2023-09-19T05:12:47;100802.88;;;13.83;96.59
47220;BME280;32961;51.936;4.788;2023-09-19T05:15:18;100801.53;;;13.87;96.40
47220;BME280;32961;51.936;4.788;2023-09-19T05:17:50;100804.25;;;13.87;96.34
47220;BME280;32961;51.936;4.788;2023-09-19T05:20:22;100805.66;;;13.91;96.53
47220;BME280;32961;51.936;4.788;2023-09-19T05:23:00;100805.28;;;13.94;96.07
47220;BME280;32961;51.936;4.788;2023-09-19T05:25:31;100799.50;;;13.97;96.12
47220;BME280;32961;51.936;4.788;2023-09-19T05:27:59;100807.72;;;13.97;96.14
47220;BME280;32961;51.936;4.788;2023-09-19T05:30:30;100793.88;;;13.99;96.28
47220;BME280;32961;51.936;4.788;2023-09-19T05:32:59;100799.34;;;13.99;96.03
47220;BME280;32961;51.936;4.788;2023-09-19T05:35:27;100795.59;;;14.00;96.09
47220;BME280;32961;51.936;4.788;2023-09-19T05:37:54;100792.00;;;13.99;96.04
47220;BME280;32961;51.936;4.788;2023-09-19T05:40:22;100791.50;;;13.95;96.30
47220;BME280;32961;51.936;4.788;2023-09-19T05:42:52;100788.75;;;13.95;96.87
47220;BME280;32961;51.936;4.788;2023-09-19T05:45:20;100790.63;;;13.95;97.02
47220;BME280;32961;51.936;4.788;2023-09-19T05:47:49;100788.75;;;13.95;97.25
47220;BME280;32961;51.936;4.788;2023-09-19T05:50:18;100798.63;;;13.96;97.30
47220;BME280;32961;51.936;4.788;2023-09-19T05:52:51;100803.25;;;13.96;97.42
47220;BME280;32961;51.936;4.788;2023-09-19T05:55:19;100807.88;;;13.95;97.60
47220;BME280;32961;51.936;4.788;2023-09-19T05:57:53;100807.19;;;13.93;98.27
47220;BME280;32961;51.936;4.788;2023-09-19T06:00:23;100805.47;;;13.92;98.38
47220;BME280;32961;51.936;4.788;2023-09-19T06:02:54;100816.41;;;13.92;98.85
47220;BME280;32961;51.936;4.788;2023-09-19T06:05:24;100828.19;;;13.93;98.58
47220;BME280;32961;51.936;4.788;2023-09-19T06:07:53;100823.56;;;13.93;99.11
47220;BME280;32961;51.936;4.788;2023-09-19T06:10:21;100829.03;;;13.93;99.48
47220;BME280;32961;51.936;4.788;2023-09-19T06:12:50;100828.03;;;13.94;99.38
47220;BME280;32961;51.936;4.788;2023-09-19T06:15:19;100823.22;;;13.96;99.52
47220;BME280;32961;51.936;4.788;2023-09-19T06:17:50;100828.38;;;14.00;100.00
47220;BME280;32961;51.936;4.788;2023-09-19T06:20:22;100834.53;;;14.02;99.67
47220;BME280;32961;51.936;4.788;2023-09-19T06:22:50;100833.50;;;14.03;100.00
47220;BME280;32961;51.936;4.788;2023-09-19T06:25:19;100836.72;;;14.06;100.00
47220;BME280;32961;51.936;4.788;2023-09-19T06:27:50;100833.16;;;14.06;100.00
47220;BME280;32961;51.936;4.788;2023-09-19T06:30:20;100826.69;;;14.07;100.00
47220;BME280;32961;51.936;4.788;2023-09-19T06:32:49;100831.78;;;14.10;100.00
47220;BME280;32961;51.936;4.788;2023-09-19T06:35:23;100825.31;;;14.11;100.00
47220;BME280;32961;51.936;4.788;2023-09-19T06:37:52;100834.38;;;14.11;100.00
47220;BME280;32961;51.936;4.788;2023-09-19T06:40:20;100829.75;;;14.12;100.00
47220;BME280;32961;51.936;4.788;2023-09-19T06:42:51;100834.03;;;14.15;100.00
47220;BME280;32961;51.936;4.788;2023-09-19T06:45:21;100831.28;;;14.15;100.00
47220;BME280;32961;51.936;4.788;2023-09-19T06:47:50;100836.59;;;14.16;100.00
47220;BME280;32961;51.936;4.788;2023-09-19T06:50:19;100836.44;;;14.18;100.00
47220;BME280;32961;51.936;4.788;2023-09-19T06:52:49;100838.81;;;14.21;100.00
47220;BME280;32961;51.936;4.788;2023-09-19T06:55:18;100832.16;;;14.23;100.00
47220;BME280;32961;51.936;4.788;2023-09-19T06:57:47;100831.13;;;14.24;100.00
47220;BME280;32961;51.936;4.788;2023-09-19T07:00:16;100831.47;;;14.29;100.00
47220;BME280;32961;51.936;4.788;2023-09-19T07:02:54;100832.16;;;14.32;100.00
47220;BME280;32961;51.936;4.788;2023-09-19T07:05:22;100831.84;;;14.35;100.00
47220;BME280;32961;51.936;4.788;2023-09-19T07:07:50;100836.63;;;14.41;100.00
47220;BME280;32961;51.936;4.788;2023-09-19T07:10:18;100830.63;;;14.45;100.00
47220;BME280;32961;51.936;4.788;2023-09-19T07:12:47;100836.28;;;14.52;100.00
47220;BME280;32961;51.936;4.788;2023-09-19T07:15:14;100842.44;;;14.54;100.00
47220;BME280;32961;51.936;4.788;2023-09-19T07:17:42;100838.66;;;14.55;99.81
47220;BME280;32961;51.936;4.788;2023-09-19T07:20:13;100841.75;;;14.60;99.92
47220;BME280;32961;51.936;4.788;2023-09-19T07:22:42;100836.66;;;14.66;99.84
47220;BME280;32961;51.936;4.788;2023-09-19T07:25:10;100835.63;;;14.75;99.87
47220;BME280;32961;51.936;4.788;2023-09-19T07:27:40;100846.56;;;14.83;99.83
47220;BME280;32961;51.936;4.788;2023-09-19T07:30:09;100843.13;;;14.89;99.08
47220;BME280;32961;51.936;4.788;2023-09-19T07:32:38;100862.28;;;14.98;98.75
47220;BME280;32961;51.936;4.788;2023-09-19T07:35:08;100847.91;;;15.04;98.44
47220;BME280;32961;51.936;4.788;2023-09-19T07:37:37;100850.78;;;15.11;97.72
47220;BME280;32961;51.936;4.788;2023-09-19T07:40:06;100842.75;;;15.17;97.78
47220;BME280;32961;51.936;4.788;2023-09-19T07:42:35;100852.66;;;15.27;97.57
47220;BME280;32961;51.936;4.788;2023-09-19T07:45:08;100846.47;;;15.33;96.94
47220;BME280;32961;51.936;4.788;2023-09-19T07:47:36;100852.28;;;15.38;96.62
47220;BME280;32961;51.936;4.788;2023-09-19T07:50:05;100854.63;;;15.41;96.23
47220;BME280;32961;51.936;4.788;2023-09-19T07:52:34;100850.88;;;15.42;96.11
47220;BME280;32961;51.936;4.788;2023-09-19T07:55:04;100853.09;;;15.47;95.45
47220;BME280;32961;51.936;4.788;2023-09-19T07:57:35;100853.59;;;15.50;95.60
47220;BME280;32961;51.936;4.788;2023-09-19T08:00:04;100850.84;;;15.50;94.82
47220;BME280;32961;51.936;4.788;2023-09-19T08:02:34;100840.91;;;15.57;95.01
47220;BME280;32961;51.936;4.788;2023-09-19T08:05:05;100855.75;;;15.63;94.66
47220;BME280;32961;51.936;4.788;2023-09-19T08:07:36;100866.00;;;15.69;94.17
47220;BME280;32961;51.936;4.788;2023-09-19T08:10:07;100857.09;;;15.76;93.68
47220;BME280;32961;51.936;4.788;2023-09-19T08:12:40;100852.16;;;15.71;93.21
47220;BME280;32961;51.936;4.788;2023-09-19T08:15:13;100858.97;;;15.75;93.51
47220;BME280;32961;51.936;4.788;2023-09-19T08:17:42;100851.94;;;15.81;93.73
47220;BME280;32961;51.936;4.788;2023-09-19T08:20:11;100855.19;;;15.84;92.59
47220;BME280;32961;51.936;4.788;2023-09-19T08:22:44;100854.16;;;15.85;93.03
47220;BME280;32961;51.936;4.788;2023-09-19T08:25:16;100855.13;;;15.93;93.03
47220;BME280;32961;51.936;4.788;2023-09-19T08:27:45;100856.50;;;15.97;93.20
47220;BME280;32961;51.936;4.788;2023-09-19T08:30:14;100846.56;;;15.96;92.65
47220;BME280;32961;51.936;4.788;2023-09-19T08:32:42;100845.03;;;15.93;91.77
47220;BME280;32961;51.936;4.788;2023-09-19T08:35:10;100837.25;;;16.05;92.57
47220;BME280;32961;51.936;4.788;2023-09-19T08:37:38;100842.50;;;16.15;90.99
47220;BME280;32961;51.936;4.788;2023-09-19T08:40:07;100845.91;;;16.17;90.24
47220;BME280;32961;51.936;4.788;2023-09-19T08:42:50;100842.25;;;16.25;90.07
47220;BME280;32961;51.936;4.788;2023-09-19T08:45:18;100842.94;;;16.27;88.16
47220;BME280;32961;51.936;4.788;2023-09-19T08:47:55;100841.91;;;16.28;88.50
47220;BME280;32961;51.936;4.788;2023-09-19T08:50:27;100836.53;;;16.34;87.84
47220;BME280;32961;51.936;4.788;2023-09-19T08:53:01;100830.50;;;16.39;87.10
47220;BME280;32961;51.936;4.788;2023-09-19T08:55:29;100836.78;;;16.48;87.53
47220;BME280;32961;51.936;4.788;2023-09-19T08:58:03;100839.94;;;16.60;87.31
47220;BME280;32961;51.936;4.788;2023-09-19T09:00:34;100832.13;;;16.72;86.33
47220;BME280;32961;51.936;4.788;2023-09-19T09:03:03;100828.09;;;16.82;87.03
47220;BME280;32961;51.936;4.788;2023-09-19T09:05:34;100833.84;;;16.96;86.26
47220;BME280;32961;51.936;4.788;2023-09-19T09:08:05;100827.19;;;17.05;85.24
47220;BME280;32961;51.936;4.788;2023-09-19T09:10:34;100836.13;;;17.22;84.92
47220;BME280;32961;51.936;4.788;2023-09-19T09:13:04;100845.59;;;17.35;84.56
47220;BME280;32961;51.936;4.788;2023-09-19T09:15:35;100826.38;;;17.35;83.08
47220;BME280;32961;51.936;4.788;2023-09-19T09:18:04;100831.75;;;17.43;83.11
47220;BME280;32961;51.936;4.788;2023-09-19T09:20:32;100836.31;;;17.51;82.66
47220;BME280;32961;51.936;4.788;2023-09-19T09:23:00;100839.16;;;17.57;81.55
47220;BME280;32961;51.936;4.788;2023-09-19T09:25:49;100842.19;;;17.47;80.23
47220;BME280;32961;51.936;4.788;2023-09-19T09:28:24;100830.63;;;17.37;80.82
47220;BME280;32961;51.936;4.788;2023-09-19T09:30:53;100820.84;;;17.49;82.10
47220;BME280;32961;51.936;4.788;2023-09-19T09:33:21;100830.63;;;17.67;80.52
47220;BME280;32961;51.936;4.788;2023-09-19T09:35:51;100844.53;;;17.65;79.72
47220;BME280;32961;51.936;4.788;2023-09-19T09:38:24;100826.47;;;17.56;80.01
47220;BME280;32961;51.936;4.788;2023-09-19T09:40:55;100816.28;;;17.72;80.48
47220;BME280;32961;51.936;4.788;2023-09-19T09:43:33;100830.47;;;17.75;78.88
47220;BME280;32961;51.936;4.788;2023-09-19T09:46:12;100828.13;;;17.72;79.65
47220;BME280;32961;51.936;4.788;2023-09-19T09:49:04;100821.41;;;17.75;79.61
47220;BME280;32961;51.936;4.788;2023-09-19T09:52:00;100832.19;;;17.76;78.94
47220;BME280;32961;51.936;4.788;2023-09-19T09:54:35;100828.31;;;17.86;77.98
47220;BME280;32961;51.936;4.788;2023-09-19T09:57:05;100833.13;;;17.84;78.75
47220;BME280;32961;51.936;4.788;2023-09-19T09:59:47;100814.28;;;17.80;79.39
47220;BME280;32961;51.936;4.788;2023-09-19T10:02:17;100812.66;;;17.86;78.67
47220;BME280;32961;51.936;4.788;2023-09-19T10:04:53;100814.28;;;17.95;79.21
47220;BME280;32961;51.936;4.788;2023-09-19T10:07:27;100815.28;;;18.09;79.24
47220;BME280;32961;51.936;4.788;2023-09-19T10:09:59;100805.72;;;18.05;77.25
47220;BME280;32961;51.936;4.788;2023-09-19T10:12:42;100809.31;;;18.06;77.14
47220;BME280;32961;51.936;4.788;2023-09-19T10:15:12;100799.44;;;18.11;77.14
47220;BME280;32961;51.936;4.788;2023-09-19T10:17:43;100809.78;;;18.09;77.19
47220;BME280;32961;51.936;4.788;2023-09-19T10:20:13;100816.78;;;18.12;77.50
47220;BME280;32961;51.936;4.788;2023-09-19T10:23:00;100801.16;;;18.12;76.00
47220;BME280;32961;51.936;4.788;2023-09-19T10:25:29;100785.56;;;18.20;76.32
47220;BME280;32961;51.936;4.788;2023-09-19T10:28:00;100776.53;;;18.26;75.86
47220;BME280;32961;51.936;4.788;2023-09-19T10:30:32;100787.66;;;18.39;75.89
47220;BME280;32961;51.936;4.788;2023-09-19T10:33:06;100777.53;;;18.47;75.08
47220;BME280;32961;51.936;4.788;2023-09-19T10:35:38;100772.50;;;18.50;75.13
47220;BME280;32961;51.936;4.788;2023-09-19T10:38:09;100774.91;;;18.60;74.50
47220;BME280;32961;51.936;4.788;2023-09-19T10:40:38;100789.44;;;18.75;74.01
47220;BME280;32961;51.936;4.788;2023-09-19T10:43:16;100767.50;;;18.89;72.29
47220;BME280;32961;51.936;4.788;2023-09-19T10:45:47;100754.78;;;18.88;71.68
47220;BME280;32961;51.936;4.788;2023-09-19T10:48:16;100766.50;;;18.97;71.49
47220;BME280;32961;51.936;4.788;2023-09-19T10:50:49;100753.88;;;19.09;70.33
47220;BME280;32961;51.936;4.788;2023-09-19T10:53:19;100766.41;;;19.12;70.19
47220;BME280;32961;51.936;4.788;2023-09-19T10:55:51;100758.63;;;19.22;70.18
47220;BME280;32961;51.936;4.788;2023-09-19T10:58:26;100764.81;;;19.31;70.13
47220;BME280;32961;51.936;4.788;2023-09-19T11:00:58;100762.06;;;19.31;69.98
47220;BME280;32961;51.936;4.788;2023-09-19T11:03:32;100761.41;;;19.29;70.40
47220;BME280;32961;51.936;4.788;2023-09-19T11:06:06;100754.22;;;19.34;71.13
47220;BME280;32961;51.936;4.788;2023-09-19T11:08:59;100749.56;;;19.35;68.95
47220;BME280;32961;51.936;4.788;2023-09-19T11:11:48;100759.31;;;19.31;68.48
47220;BME280;32961;51.936;4.788;2023-09-19T11:14:44;100747.44;;;19.30;68.14
47220;BME280;32961;51.936;4.788;2023-09-19T11:17:43;100758.47;;;19.30;68.27
47220;BME280;32961;51.936;4.788;2023-09-19T11:20:21;100753.56;;;19.26;68.00
47220;BME280;32961;51.936;4.788;2023-09-19T11:23:17;100743.13;;;19.14;68.25
47220;BME280;32961;51.936;4.788;2023-09-19T11:25:45;100736.81;;;19.20;68.69
47220;BME280;32961;51.936;4.788;2023-09-19T11:28:31;100735.53;;;19.23;68.77
47220;BME280;32961;51.936;4.788;2023-09-19T11:34:41;100732.94;;;19.08;68.14
47220;BME280;32961;51.936;4.788;2023-09-19T11:40:37;100742.94;;;18.87;70.82
47220;BME280;32961;51.936;4.788;2023-09-19T11:43:28;100752.91;;;18.88;71.27
47220;BME280;32961;51.936;4.788;2023-09-19T11:46:04;100738.63;;;18.78;70.95
47220;BME280;32961;51.936;4.788;2023-09-19T11:48:32;100721.50;;;18.83;71.71
47220;BME280;32961;51.936;4.788;2023-09-19T11:51:12;100729.72;;;18.76;71.28
47220;BME280;32961;51.936;4.788;2023-09-19T11:53:46;100722.78;;;18.80;71.64
47220;BME280;32961;51.936;4.788;2023-09-19T11:56:17;100725.06;;;18.76;71.38
47220;BME280;32961;51.936;4.788;2023-09-19T11:58:45;100731.06;;;18.87;71.94
47220;BME280;32961;51.936;4.788;2023-09-19T12:01:22;100738.16;;;18.96;72.45
47220;BME280;32961;51.936;4.788;2023-09-19T12:03:55;100728.41;;;18.94;72.43
47220;BME280;32961;51.936;4.788;2023-09-19T12:06:26;100733.63;;;18.88;72.27
47220;BME280;32961;51.936;4.788;2023-09-19T12:08:56;100733.38;;;18.83;72.28
47220;BME280;32961;51.936;4.788;2023-09-19T12:11:29;100731.41;;;18.77;72.85
47220;BME280;32961;51.936;4.788;2023-09-19T12:14:00;100749.59;;;18.71;73.04
47220;BME280;32961;51.936;4.788;2023-09-19T12:16:29;100747.44;;;18.67;73.19
47220;BME280;32961;51.936;4.788;2023-09-19T12:18:58;100750.47;;;18.50;74.07
47220;BME280;32961;51.936;4.788;2023-09-19T12:21:54;100757.09;;;18.56;74.11
47220;BME280;32961;51.936;4.788;2023-09-19T12:24:25;100738.50;;;18.58;73.59
47220;BME280;32961;51.936;4.788;2023-09-19T12:27:00;100751.03;;;18.67;74.22
47220;BME280;32961;51.936;4.788;2023-09-19T12:29:32;100743.06;;;18.72;74.22
47220;BME280;32961;51.936;4.788;2023-09-19T12:32:00;100740.72;;;18.76;74.14
47220;BME280;32961;51.936;4.788;2023-09-19T12:34:33;100725.47;;;18.73;74.25
47220;BME280;32961;51.936;4.788;2023-09-19T12:37:08;100749.16;;;18.68;74.42
47220;BME280;32961;51.936;4.788;2023-09-19T12:39:40;100745.28;;;18.62;75.46
47220;BME280;32961;51.936;4.788;2023-09-19T12:42:16;100745.75;;;18.66;76.04
47220;BME280;32961;51.936;4.788;2023-09-19T12:44:46;100752.78;;;18.47;77.20
47220;BME280;32961;51.936;4.788;2023-09-19T12:47:15;100758.91;;;18.42;79.79
47220;BME280;32961;51.936;4.788;2023-09-19T12:50:06;100752.53;;;18.41;81.69
47220;BME280;32961;51.936;4.788;2023-09-19T12:52:36;100744.94;;;18.43;81.82
47220;BME280;32961;51.936;4.788;2023-09-19T12:55:05;100746.91;;;18.50;81.86
47220;BME280;32961;51.936;4.788;2023-09-19T12:57:33;100746.34;;;18.61;80.88
47220;BME280;32961;51.936;4.788;2023-09-19T13:00:01;100747.25;;;18.68;80.29
47220;BME280;32961;51.936;4.788;2023-09-19T13:02:32;100737.09;;;18.69;80.04
47220;BME280;32961;51.936;4.788;2023-09-19T13:05:00;100737.72;;;18.71;79.02
47220;BME280;32961;51.936;4.788;2023-09-19T13:07:41;100712.22;;;18.84;79.31
47220;BME280;32961;51.936;4.788;2023-09-19T13:10:13;100732.28;;;19.06;78.74
47220;BME280;32961;51.936;4.788;2023-09-19T13:12:43;100740.63;;;19.26;76.97
47220;BME280;32961;51.936;4.788;2023-09-19T13:15:15;100730.06;;;19.30;75.06
47220;BME280;32961;51.936;4.788;2023-09-19T13:17:47;100733.03;;;19.35;75.05
47220;BME280;32961;51.936;4.788;2023-09-19T13:20:23;100722.44;;;19.38;72.81